createdAt,value
2024-02-08T00:01:01.446Z,83.25
2024-02-08T00:06:15.625Z,83.26
2024-02-08T00:11:18.803Z,83.27
2024-02-08T00:16:22.006Z,83.29
2024-02-08T00:21:25.168Z,83.28
2024-02-08T00:26:28.202Z,83.26
2024-02-08T00:31:31.116Z,83.29
2024-02-08T00:36:34.131Z,83.31
2024-02-08T00:41:37.926Z,83.31
2024-02-08T00:46:41.084Z,83.32
2024-02-08T00:51:44.009Z,83.31
2024-02-08T00:56:46.931Z,83.31
2024-02-08T01:01:49.880Z,83.38
2024-02-08T01:06:52.814Z,83.38
2024-02-08T01:11:56.486Z,83.40
2024-02-08T01:16:59.500Z,83.40
2024-02-08T01:22:02.609Z,83.46
2024-02-08T01:27:05.990Z,83.46
2024-02-08T01:32:09.517Z,83.50
2024-02-08T01:37:16.531Z,83.53
2024-02-08T01:42:19.689Z,83.60
2024-02-08T01:47:23.164Z,83.60
2024-02-08T01:52:26.251Z,83.60
2024-02-08T01:57:29.791Z,83.65
2024-02-08T02:02:37.291Z,83.61
2024-02-08T02:07:40.284Z,83.65
2024-02-08T02:12:46.947Z,83.71
2024-02-08T02:17:50.016Z,83.79
2024-02-08T02:22:53.108Z,83.81
2024-02-08T02:28:02.111Z,83.85
2024-02-08T02:33:07.610Z,83.93
2024-02-08T02:38:14.237Z,83.96
2024-02-08T02:43:17.588Z,84.03
2024-02-08T02:48:22.434Z,84.10
2024-02-08T02:53:25.797Z,84.11
2024-02-08T02:58:28.838Z,84.14
2024-02-08T03:03:39.358Z,84.18
2024-02-08T03:08:45.374Z,84.18
2024-02-08T03:13:50.484Z,84.25
2024-02-08T03:18:53.497Z,84.25
2024-02-08T03:23:58.005Z,84.25
2024-02-08T03:29:01.329Z,84.24
2024-02-08T03:34:04.449Z,84.21
2024-02-08T03:39:14.650Z,84.24
2024-02-08T03:44:17.730Z,84.26
2024-02-08T03:49:21.725Z,84.26
2024-02-08T03:54:31.695Z,84.24
2024-02-08T03:59:42.489Z,84.20
2024-02-08T04:05:01.326Z,84.20
2024-02-08T04:10:21.061Z,84.20
2024-02-08T04:15:42.726Z,84.24
2024-02-08T04:21:04.255Z,84.20
2024-02-08T04:26:28.536Z,84.24
2024-02-08T04:31:50.120Z,84.24
2024-02-08T04:37:11.815Z,84.20
2024-02-08T04:42:33.353Z,84.25
2024-02-08T04:48:05.751Z,84.24
2024-02-08T04:53:29.062Z,84.25
2024-02-08T04:58:56.718Z,84.28
2024-02-08T05:03:55.225Z,84.29
2024-02-08T05:09:01.259Z,84.30
2024-02-08T05:14:06.107Z,84.33
2024-02-08T05:19:12.497Z,84.32
2024-02-08T05:24:15.623Z,84.33
2024-02-08T05:29:22.726Z,84.39
2024-02-08T05:34:27.419Z,84.39
2024-02-08T05:39:31.002Z,84.40
2024-02-08T05:44:41.595Z,84.40
2024-02-08T05:49:51.053Z,84.49
2024-02-08T05:54:54.650Z,84.51
2024-02-08T06:00:01.730Z,84.51
2024-02-08T06:05:11.067Z,84.57
2024-02-08T06:10:16.057Z,84.65
2024-02-08T06:15:23.540Z,84.83
2024-02-08T06:20:46.464Z,84.82
2024-02-08T06:26:21.413Z,85.01
2024-02-08T06:31:35.017Z,85.25
2024-02-08T06:36:59.491Z,85.21
2024-02-08T06:42:28.836Z,85.48
2024-02-08T06:47:52.471Z,85.39
2024-02-08T06:53:14.220Z,85.43
2024-02-08T06:58:36.182Z,85.41
2024-02-08T07:03:59.426Z,85.39
2024-02-08T07:09:22.304Z,85.54
2024-02-08T07:14:44.175Z,85.58
2024-02-08T07:20:05.832Z,85.76
2024-02-08T07:25:27.723Z,85.86
2024-02-08T07:30:49.430Z,85.80
2024-02-08T07:36:11.582Z,85.82
2024-02-08T07:41:20.283Z,85.86
2024-02-08T07:46:32.021Z,85.85
2024-02-08T07:51:35.805Z,85.85
2024-02-08T07:56:47.864Z,85.87
2024-02-08T08:01:52.124Z,85.54
2024-02-08T08:07:01.794Z,85.11
2024-02-08T08:12:06.326Z,85.50
2024-02-08T08:17:09.792Z,85.75
2024-02-08T08:22:26.401Z,84.57
2024-02-08T08:27:48.692Z,83.47
2024-02-08T08:32:54.576Z,83.86
2024-02-08T08:38:20.949Z,84.04
2024-02-08T08:43:25.761Z,83.61
2024-02-08T08:48:35.200Z,82.36
2024-02-08T08:53:48.730Z,81.56
2024-02-08T08:58:52.041Z,81.82
2024-02-08T09:04:24.049Z,82.11
2024-02-08T09:09:50.119Z,81.78
2024-02-08T09:14:55.122Z,80.29
2024-02-08T09:20:00.946Z,80.39
2024-02-08T09:25:22.827Z,79.94
2024-02-08T09:30:40.718Z,79.21
2024-02-08T09:35:44.406Z,77.66
2024-02-08T09:40:48.081Z,77.04
2024-02-08T09:46:10.372Z,77.08
2024-02-08T09:51:24.473Z,78.14
2024-02-08T09:56:51.799Z,77.13
2024-02-08T10:01:57.554Z,76.14
2024-02-08T10:07:07.301Z,74.66
2024-02-08T10:12:21.987Z,74.50
2024-02-08T10:17:42.353Z,74.39
2024-02-08T10:23:06.764Z,75.85
2024-02-08T10:28:10.617Z,74.75
2024-02-08T10:34:12.254Z,74.18
2024-02-08T10:39:27.993Z,73.40
2024-02-08T10:44:36.082Z,72.00
2024-02-08T10:49:46.766Z,70.75
2024-02-08T10:54:58.474Z,71.72
2024-02-08T11:00:14.691Z,71.00
2024-02-08T11:05:23.172Z,70.78
2024-02-08T11:10:33.477Z,70.21
2024-02-08T11:15:49.212Z,70.47
2024-02-08T11:21:05.768Z,71.07
2024-02-08T11:26:09.817Z,70.36
2024-02-08T11:31:23.218Z,70.36
2024-02-08T11:36:36.529Z,70.45
2024-02-08T11:41:44.334Z,70.75
2024-02-08T11:46:52.764Z,69.92
2024-02-08T11:51:56.074Z,69.82
2024-02-08T11:57:07.060Z,69.19
2024-02-08T12:02:13.156Z,68.93
2024-02-08T12:07:21.517Z,69.75
2024-02-08T12:12:26.942Z,69.79
2024-02-08T12:17:30.118Z,69.67
2024-02-08T12:22:33.686Z,69.95
2024-02-08T12:27:37.815Z,70.15
2024-02-08T12:32:41.128Z,69.86
2024-02-08T12:37:56.050Z,70.50
2024-02-08T12:43:10.180Z,70.15
2024-02-08T12:48:22.274Z,70.21
2024-02-08T12:53:27.085Z,70.39
2024-02-08T12:58:46.641Z,70.50
2024-02-08T13:04:01.684Z,71.02
2024-02-08T13:09:36.921Z,70.74
2024-02-08T13:15:08.019Z,71.01
2024-02-08T13:20:20.037Z,71.60
2024-02-08T13:25:31.382Z,71.39
2024-02-08T13:30:38.080Z,71.43
2024-02-08T13:35:42.343Z,71.72
2024-02-08T13:40:46.800Z,71.65
2024-02-08T13:45:56.155Z,71.54
2024-02-08T13:51:07.535Z,71.79
2024-02-08T13:56:13.737Z,71.93
2024-02-08T14:01:26.831Z,71.85
2024-02-08T14:06:31.399Z,71.88
2024-02-08T14:11:40.163Z,71.86
2024-02-08T14:16:46.931Z,72.15
2024-02-08T14:21:55.416Z,72.28
2024-02-08T14:26:58.588Z,72.44
2024-02-08T14:32:07.071Z,72.62
2024-02-08T14:37:13.722Z,72.73
2024-02-08T14:42:26.155Z,72.94
2024-02-08T14:47:32.689Z,73.04
2024-02-08T14:52:37.644Z,73.07
2024-02-08T14:57:43.864Z,73.08
2024-02-08T15:02:57.010Z,73.06
2024-02-08T15:08:09.911Z,73.22
2024-02-08T15:13:20.156Z,73.43
2024-02-08T15:18:40.519Z,73.58
2024-02-08T15:23:50.150Z,73.69
2024-02-08T15:28:58.790Z,73.74
2024-02-08T15:34:23.592Z,73.79
2024-02-08T15:39:30.604Z,73.88
2024-02-08T15:44:37.005Z,74.17
2024-02-08T15:49:44.415Z,74.17
2024-02-08T15:54:52.386Z,74.42
2024-02-08T15:59:58.671Z,74.71
2024-02-08T16:05:15.161Z,74.81
2024-02-08T16:10:25.844Z,75.00
2024-02-08T16:15:29.492Z,75.03
2024-02-08T16:20:40.219Z,75.35
2024-02-08T16:25:46.015Z,75.35
2024-02-08T16:31:00.341Z,75.44
2024-02-08T16:36:24.919Z,75.93
2024-02-08T16:41:32.764Z,76.01
2024-02-08T16:46:38.596Z,76.39
2024-02-08T16:51:52.305Z,76.57
2024-02-08T16:56:57.435Z,76.93
2024-02-08T17:02:13.367Z,76.79
2024-02-08T17:07:47.065Z,76.95
2024-02-08T17:12:56.745Z,77.33
2024-02-08T17:19:09.720Z,77.38
2024-02-08T17:24:23.582Z,77.38
2024-02-08T17:29:36.869Z,77.67
2024-02-08T17:34:41.210Z,77.71
2024-02-08T17:39:49.399Z,77.93
2024-02-08T17:45:02.434Z,77.76
2024-02-08T17:50:06.588Z,77.90
2024-02-08T17:55:09.830Z,77.82
2024-02-08T18:00:23.071Z,78.15
2024-02-08T18:05:28.831Z,78.50
2024-02-08T18:10:51.944Z,78.32
2024-02-08T18:16:04.685Z,78.43
2024-02-08T18:21:15.122Z,78.43
2024-02-08T18:26:28.857Z,78.54
2024-02-08T18:31:38.560Z,78.49
2024-02-08T18:36:47.537Z,78.61
2024-02-08T18:41:52.398Z,78.61
2024-02-08T18:46:56.215Z,78.51
2024-02-08T18:51:59.709Z,78.81
2024-02-08T18:57:10.357Z,78.72
2024-02-08T19:02:13.988Z,78.95
2024-02-08T19:07:19.978Z,79.17
2024-02-08T19:12:27.101Z,79.23
2024-02-08T19:17:31.905Z,79.41
2024-02-08T19:22:35.270Z,79.54
2024-02-08T19:27:39.743Z,79.44
2024-02-08T19:32:44.531Z,79.56
2024-02-08T19:37:51.481Z,79.44
2024-02-08T19:42:54.450Z,79.42
2024-02-08T19:47:57.577Z,79.54
2024-02-08T19:53:07.595Z,79.83
2024-02-08T19:58:11.028Z,79.53
2024-02-08T20:03:21.889Z,79.65
2024-02-08T20:08:27.410Z,79.67
2024-02-08T20:13:31.690Z,79.58
2024-02-08T20:18:38.614Z,79.64
2024-02-08T20:23:41.711Z,79.68
2024-02-08T20:28:45.319Z,79.81
2024-02-08T20:33:49.271Z,79.81
2024-02-08T20:38:55.829Z,79.75
2024-02-08T20:44:08.655Z,79.86
2024-02-08T20:49:16.993Z,80.06
2024-02-08T20:54:20.068Z,80.33
2024-02-08T20:59:24.895Z,80.14
2024-02-08T21:04:29.864Z,80.35
2024-02-08T21:09:32.992Z,80.60
2024-02-08T21:14:36.202Z,80.48
2024-02-08T21:19:44.686Z,80.63
2024-02-08T21:24:49.332Z,80.44
2024-02-08T21:29:55.222Z,80.51
2024-02-08T21:34:58.407Z,80.53
2024-02-08T21:40:02.554Z,80.54
2024-02-08T21:45:06.276Z,80.61
2024-02-08T21:50:11.448Z,80.58
2024-02-08T21:55:17.188Z,80.59
2024-02-08T22:00:20.343Z,80.63
2024-02-08T22:05:23.405Z,80.65
2024-02-08T22:10:27.625Z,80.77
2024-02-08T22:15:33.606Z,80.72
2024-02-08T22:20:36.725Z,80.78
2024-02-08T22:25:39.613Z,80.80
2024-02-08T22:30:44.632Z,80.81
2024-02-08T22:35:48.146Z,80.85
2024-02-08T22:40:51.174Z,80.86
2024-02-08T22:45:54.229Z,80.90
2024-02-08T22:50:57.153Z,80.96
2024-02-08T22:56:01.501Z,81.00
2024-02-08T23:01:24.870Z,81.09
2024-02-08T23:06:32.127Z,81.08
2024-02-08T23:11:38.154Z,81.14
2024-02-08T23:16:41.207Z,81.07
2024-02-08T23:21:53.126Z,81.11
2024-02-08T23:26:56.546Z,81.13
2024-02-08T23:32:00.375Z,81.16
2024-02-08T23:37:08.053Z,81.12
2024-02-08T23:42:11.002Z,81.21
2024-02-08T23:47:18.878Z,81.21
2024-02-08T23:52:21.971Z,81.21
2024-02-08T23:57:24.936Z,81.21
